createdAt,value
2022-08-31T00:00:30.855Z,19.81
2022-08-31T00:03:20.216Z,19.41
2022-08-31T00:05:50.170Z,19.28
2022-08-31T00:08:19.160Z,19.59
2022-08-31T00:11:00.247Z,19.76
2022-08-31T00:13:30.509Z,19.89
2022-08-31T00:16:05.585Z,19.72
2022-08-31T00:18:41.682Z,19.73
2022-08-31T00:21:11.587Z,19.70
2022-08-31T00:23:44.987Z,19.41
2022-08-31T00:26:15.898Z,19.46
2022-08-31T00:28:46.664Z,19.50
2022-08-31T00:31:20.500Z,19.41
2022-08-31T00:33:56.536Z,19.51
2022-08-31T00:36:28.998Z,19.15
2022-08-31T00:39:03.178Z,19.23
2022-08-31T00:41:48.324Z,19.14
2022-08-31T00:44:24.674Z,19.15
2022-08-31T00:46:56.656Z,18.94
2022-08-31T00:49:53.769Z,19.02
2022-08-31T00:52:50.050Z,18.97
2022-08-31T00:55:27.404Z,18.78
2022-08-31T00:58:02.892Z,18.95
2022-08-31T01:00:33.043Z,19.15
2022-08-31T01:03:07.462Z,19.05
2022-08-31T01:05:44.196Z,18.76
2022-08-31T01:08:18.483Z,18.73
2022-08-31T01:10:51.848Z,18.82
2022-08-31T01:13:31.590Z,18.73
2022-08-31T01:16:07.543Z,18.91
2022-08-31T01:18:46.551Z,18.56
2022-08-31T01:21:27.055Z,18.50
2022-08-31T01:24:16.252Z,18.64
2022-08-31T01:26:49.584Z,18.49
2022-08-31T01:29:33.830Z,18.34
2022-08-31T01:32:13.988Z,18.38
2022-08-31T01:34:50.478Z,18.51
2022-08-31T01:37:19.978Z,18.64
2022-08-31T01:40:00.837Z,18.90
2022-08-31T01:42:42.534Z,18.95
2022-08-31T01:45:21.518Z,18.66
2022-08-31T01:47:50.500Z,18.47
2022-08-31T01:50:33.512Z,18.33
2022-08-31T01:53:09.127Z,18.23
2022-08-31T01:55:40.717Z,17.93
2022-08-31T01:58:20.794Z,17.94
2022-08-31T02:01:33.765Z,18.00
2022-08-31T02:04:07.775Z,18.34
2022-08-31T02:06:39.287Z,18.52
2022-08-31T02:09:11.842Z,18.41
2022-08-31T02:11:54.412Z,18.30
2022-08-31T02:14:31.175Z,18.18
2022-08-31T02:17:15.208Z,18.18
2022-08-31T02:19:45.678Z,18.19
2022-08-31T02:22:22.322Z,18.22
2022-08-31T02:24:52.762Z,18.11
2022-08-31T02:27:25.394Z,18.19
2022-08-31T02:29:56.808Z,18.36
2022-08-31T02:32:29.202Z,18.28
2022-08-31T02:35:02.245Z,17.81
2022-08-31T02:37:31.481Z,17.84
2022-08-31T02:40:10.992Z,17.78
2022-08-31T02:42:53.002Z,17.52
2022-08-31T02:45:29.230Z,17.38
2022-08-31T02:48:17.236Z,17.26
2022-08-31T02:50:56.352Z,17.36
2022-08-31T02:53:31.267Z,17.45
2022-08-31T02:56:09.855Z,17.63
2022-08-31T02:58:42.864Z,17.66
2022-08-31T03:01:17.296Z,17.40
2022-08-31T03:04:01.604Z,17.64
2022-08-31T03:06:35.510Z,17.84
2022-08-31T03:09:15.637Z,17.88
2022-08-31T03:11:50.297Z,17.86
2022-08-31T03:14:21.430Z,17.62
2022-08-31T03:16:53.264Z,17.76
2022-08-31T03:19:26.109Z,17.75
2022-08-31T03:21:57.887Z,17.90
2022-08-31T03:24:31.302Z,17.94
2022-08-31T03:27:02.160Z,17.66
2022-08-31T03:29:45.220Z,17.77
2022-08-31T03:32:22.404Z,17.38
2022-08-31T03:35:03.604Z,17.16
2022-08-31T03:37:34.801Z,17.07
2022-08-31T03:40:09.874Z,17.04
2022-08-31T03:42:53.060Z,17.28
2022-08-31T03:45:52.421Z,17.26
2022-08-31T03:48:24.908Z,17.37
2022-08-31T03:51:07.341Z,17.43
2022-08-31T03:53:39.895Z,17.54
2022-08-31T03:56:09.575Z,17.38
2022-08-31T03:58:45.169Z,17.37
2022-08-31T04:01:36.879Z,17.41
2022-08-31T04:04:29.449Z,17.60
2022-08-31T04:07:02.676Z,17.75
2022-08-31T04:09:58.189Z,17.72
2022-08-31T04:13:08.522Z,17.37
2022-08-31T04:16:05.951Z,17.19
2022-08-31T04:19:18.739Z,17.22
2022-08-31T04:22:05.059Z,17.29
2022-08-31T04:24:44.546Z,17.38
2022-08-31T04:27:17.053Z,17.48
2022-08-31T04:29:57.403Z,17.82
2022-08-31T04:32:33.960Z,17.81
2022-08-31T04:37:54.285Z,17.78
2022-08-31T04:40:25.979Z,17.73
2022-08-31T04:42:58.491Z,17.78
2022-08-31T04:45:29.341Z,17.88
2022-08-31T04:48:00.989Z,17.87
2022-08-31T04:50:42.456Z,17.93
2022-08-31T04:56:09.822Z,18.13
2022-08-31T04:58:40.994Z,17.93
2022-08-31T05:01:19.161Z,17.98
2022-08-31T05:04:13.603Z,17.90
2022-08-31T05:06:58.607Z,17.93
2022-08-31T05:09:34.092Z,18.10
2022-08-31T05:12:15.668Z,18.23
2022-08-31T05:14:50.952Z,18.28
2022-08-31T05:17:39.196Z,18.39
2022-08-31T05:20:09.707Z,18.48
2022-08-31T05:22:48.659Z,18.57
2022-08-31T05:25:24.640Z,18.55
2022-08-31T05:27:59.845Z,18.62
2022-08-31T05:30:37.311Z,18.61
2022-08-31T05:33:15.907Z,18.70
2022-08-31T05:35:53.686Z,18.71
2022-08-31T05:38:23.755Z,18.76
2022-08-31T05:40:56.166Z,18.93
2022-08-31T05:43:32.304Z,18.90
2022-08-31T05:46:10.486Z,18.85
2022-08-31T05:48:54.800Z,19.07
2022-08-31T05:51:25.941Z,19.01
2022-08-31T05:53:55.587Z,19.13
2022-08-31T05:56:39.792Z,19.20
2022-08-31T05:59:10.634Z,19.28
2022-08-31T06:01:51.086Z,19.35
2022-08-31T06:04:36.957Z,19.42
2022-08-31T06:07:10.529Z,19.22
2022-08-31T06:09:56.266Z,19.30
2022-08-31T06:12:33.776Z,19.63
2022-08-31T06:15:11.511Z,19.63
2022-08-31T06:17:45.603Z,19.80
2022-08-31T06:20:22.064Z,19.97
2022-08-31T06:23:03.411Z,19.88
2022-08-31T06:26:03.961Z,19.88
2022-08-31T06:28:39.105Z,20.01
2022-08-31T06:31:19.089Z,19.89
2022-08-31T06:33:57.551Z,19.99
2022-08-31T06:36:47.768Z,20.19
2022-08-31T06:39:45.773Z,20.15
2022-08-31T06:42:31.585Z,20.34
2022-08-31T06:45:40.042Z,20.26
2022-08-31T06:48:53.810Z,20.41
2022-08-31T06:51:33.086Z,20.48
2022-08-31T06:54:28.039Z,20.56
2022-08-31T06:57:20.146Z,20.53
2022-08-31T07:00:21.688Z,20.48
2022-08-31T07:03:39.016Z,20.45
2022-08-31T07:06:20.537Z,20.56
2022-08-31T07:09:07.484Z,20.63
2022-08-31T07:11:45.083Z,20.46
2022-08-31T07:14:19.738Z,20.64
2022-08-31T07:16:51.036Z,20.82
2022-08-31T07:19:40.114Z,20.87
2022-08-31T07:22:20.479Z,21.16
2022-08-31T07:24:59.354Z,21.17
2022-08-31T07:27:43.720Z,21.34
2022-08-31T07:30:19.318Z,21.17
2022-08-31T07:32:50.619Z,21.19
2022-08-31T07:35:37.719Z,21.31
2022-08-31T07:38:52.495Z,21.44
2022-08-31T07:41:43.467Z,21.15
2022-08-31T07:44:14.820Z,21.40
2022-08-31T07:46:53.085Z,21.67
2022-08-31T07:49:28.698Z,21.86
2022-08-31T07:52:32.084Z,21.75
2022-08-31T07:55:34.558Z,21.83
2022-08-31T07:58:09.272Z,21.92
2022-08-31T08:00:41.353Z,22.11
2022-08-31T08:03:15.207Z,22.15
2022-08-31T08:06:11.334Z,22.08
2022-08-31T08:09:22.249Z,22.28
2022-08-31T08:12:12.905Z,22.50
2022-08-31T08:15:05.415Z,21.93
2022-08-31T08:18:02.132Z,22.47
2022-08-31T08:20:39.154Z,22.76
2022-08-31T08:23:26.809Z,22.79
2022-08-31T08:26:23.139Z,22.92
2022-08-31T08:29:07.207Z,23.09
2022-08-31T08:31:45.549Z,23.11
2022-08-31T08:34:21.224Z,23.23
2022-08-31T08:37:01.024Z,23.37
2022-08-31T08:39:36.546Z,23.20
2022-08-31T08:42:15.864Z,23.01
2022-08-31T08:44:54.850Z,23.31
2022-08-31T08:47:38.324Z,23.23
2022-08-31T08:50:21.127Z,23.34
2022-08-31T08:52:53.268Z,23.49
2022-08-31T08:55:39.469Z,23.69
2022-08-31T08:58:13.575Z,23.50
2022-08-31T09:00:47.939Z,23.73
2022-08-31T09:03:49.064Z,23.91
2022-08-31T09:07:12.408Z,24.01
2022-08-31T09:10:08.093Z,24.04
2022-08-31T09:13:15.218Z,24.15
2022-08-31T09:15:51.625Z,24.29
2022-08-31T09:18:40.049Z,24.23
2022-08-31T09:21:45.485Z,24.11
2022-08-31T09:24:23.379Z,24.15
2022-08-31T09:27:40.836Z,24.29
2022-08-31T09:30:25.185Z,24.37
2022-08-31T09:33:01.437Z,24.29
2022-08-31T09:35:44.816Z,24.34
2022-08-31T09:38:32.552Z,24.59
2022-08-31T09:41:08.136Z,24.57
2022-08-31T09:43:44.112Z,24.66
2022-08-31T09:46:33.147Z,24.75
2022-08-31T09:49:05.403Z,24.60
2022-08-31T09:51:47.192Z,24.87
2022-08-31T09:54:35.210Z,24.93
2022-08-31T09:57:11.537Z,24.89
2022-08-31T09:59:56.250Z,25.05
2022-08-31T10:02:50.811Z,24.74
2022-08-31T10:06:05.437Z,24.75
2022-08-31T10:08:58.634Z,25.09
2022-08-31T10:11:32.598Z,25.09
2022-08-31T10:14:24.025Z,24.88
2022-08-31T10:17:03.553Z,24.80
2022-08-31T10:20:26.262Z,24.89
2022-08-31T10:23:13.275Z,25.03
2022-08-31T10:25:55.268Z,24.58
2022-08-31T10:28:53.466Z,24.59
2022-08-31T10:31:48.803Z,24.61
2022-08-31T10:34:56.727Z,24.61
2022-08-31T10:37:36.075Z,24.70
2022-08-31T10:40:18.786Z,24.71
2022-08-31T10:43:25.575Z,24.78
2022-08-31T10:45:59.203Z,24.65
2022-08-31T10:48:28.961Z,24.70
2022-08-31T10:51:18.478Z,24.51
2022-08-31T10:54:23.308Z,24.36
2022-08-31T10:57:37.948Z,24.25
2022-08-31T11:00:52.489Z,24.10
2022-08-31T11:03:50.477Z,24.05
2022-08-31T11:06:54.755Z,23.91
2022-08-31T11:09:41.995Z,23.90
2022-08-31T11:12:19.627Z,23.93
2022-08-31T11:15:27.527Z,23.79
2022-08-31T11:18:49.191Z,23.78
2022-08-31T11:21:45.873Z,23.87
2022-08-31T11:24:51.489Z,23.66
2022-08-31T11:27:39.370Z,23.51
2022-08-31T11:30:41.238Z,23.34
2022-08-31T11:33:21.381Z,23.15
2022-08-31T11:36:07.017Z,23.06
2022-08-31T11:39:21.175Z,22.60
2022-08-31T11:42:01.608Z,22.37
2022-08-31T11:44:52.598Z,22.35
2022-08-31T11:47:51.178Z,22.37
2022-08-31T11:50:28.362Z,22.23
2022-08-31T11:53:02.286Z,21.98
2022-08-31T11:55:53.559Z,21.96
2022-08-31T11:58:39.177Z,21.61
2022-08-31T12:01:51.640Z,21.45
2022-08-31T12:05:07.661Z,21.45
2022-08-31T12:07:53.364Z,21.34
2022-08-31T12:10:52.687Z,21.12
2022-08-31T12:13:59.173Z,21.18
2022-08-31T12:17:02.853Z,21.04
2022-08-31T12:23:39.853Z,21.10
2022-08-31T12:26:52.554Z,21.05
2022-08-31T12:29:37.223Z,21.55
2022-08-31T12:32:52.048Z,21.76
2022-08-31T12:35:31.392Z,21.63
2022-08-31T12:38:19.809Z,21.66
2022-08-31T12:40:59.110Z,22.02
2022-08-31T12:43:33.173Z,22.65
2022-08-31T12:46:43.142Z,22.49
2022-08-31T12:49:32.173Z,22.89
2022-08-31T12:52:38.727Z,22.93
2022-08-31T12:55:45.182Z,22.54
2022-08-31T12:59:11.158Z,22.31
2022-08-31T13:01:56.044Z,22.21
2022-08-31T13:04:31.064Z,22.67
2022-08-31T13:07:44.380Z,23.25
2022-08-31T13:10:27.269Z,23.11
2022-08-31T13:13:11.904Z,25.10
2022-08-31T13:15:50.622Z,24.78
2022-08-31T13:18:32.034Z,23.67
2022-08-31T13:21:13.245Z,23.38
2022-08-31T13:23:53.255Z,23.68
2022-08-31T13:26:39.032Z,23.05
2022-08-31T13:29:20.146Z,22.52
2022-08-31T13:31:57.535Z,22.62
2022-08-31T13:34:27.017Z,22.52
2022-08-31T13:37:06.649Z,22.34
2022-08-31T13:39:45.007Z,22.62
2022-08-31T13:42:41.649Z,22.47
2022-08-31T13:46:05.526Z,22.31
2022-08-31T13:48:41.653Z,22.30
2022-08-31T13:51:20.605Z,22.39
2022-08-31T13:54:10.425Z,22.52
2022-08-31T13:57:02.930Z,22.54
2022-08-31T13:59:41.271Z,22.52
2022-08-31T14:02:36.939Z,22.49
2022-08-31T14:05:19.281Z,22.44
2022-08-31T14:08:04.372Z,22.21
2022-08-31T14:10:41.741Z,22.31
2022-08-31T14:13:30.350Z,22.11
2022-08-31T14:16:07.518Z,21.95
2022-08-31T14:18:51.244Z,22.07
2022-08-31T14:21:30.074Z,21.98
2022-08-31T14:24:11.207Z,21.94
2022-08-31T14:26:47.604Z,21.76
2022-08-31T14:29:22.466Z,21.86
2022-08-31T14:31:56.138Z,21.86
2022-08-31T14:34:41.360Z,22.00
2022-08-31T14:37:23.237Z,21.87
2022-08-31T14:40:06.581Z,21.78
2022-08-31T14:42:42.515Z,21.80
2022-08-31T14:45:22.405Z,21.71
2022-08-31T14:47:54.311Z,21.62
2022-08-31T14:50:27.210Z,21.60
2022-08-31T14:52:58.747Z,21.67
2022-08-31T14:55:33.498Z,21.56
2022-08-31T14:58:11.977Z,21.64
2022-08-31T15:00:55.445Z,21.85
2022-08-31T15:03:39.637Z,22.01
2022-08-31T15:06:15.922Z,22.13
2022-08-31T15:08:48.617Z,22.28
2022-08-31T15:11:30.044Z,22.52
2022-08-31T15:14:17.005Z,22.59
2022-08-31T15:16:49.634Z,22.50
2022-08-31T15:19:29.872Z,22.56
2022-08-31T15:22:03.186Z,22.35
2022-08-31T15:27:22.955Z,22.08
2022-08-31T15:30:11.685Z,22.22
2022-08-31T15:32:43.743Z,22.33
2022-08-31T15:35:26.270Z,22.45
2022-08-31T15:38:02.632Z,22.29
2022-08-31T15:40:38.966Z,22.13
2022-08-31T15:43:26.949Z,22.23
2022-08-31T15:46:13.794Z,22.24
2022-08-31T15:48:46.063Z,22.18
2022-08-31T15:51:29.039Z,22.19
2022-08-31T15:54:22.076Z,22.18
2022-08-31T15:57:12.411Z,22.14
2022-08-31T15:59:46.873Z,22.07
2022-08-31T16:02:24.267Z,22.09
2022-08-31T16:05:00.507Z,22.09
2022-08-31T16:07:29.997Z,21.89
2022-08-31T16:10:03.356Z,21.71
2022-08-31T16:12:43.116Z,21.59
2022-08-31T16:15:24.870Z,21.65
2022-08-31T16:18:09.778Z,21.73
2022-08-31T16:20:49.937Z,21.70
2022-08-31T16:23:22.091Z,21.58
2022-08-31T16:25:53.135Z,21.59
2022-08-31T16:28:24.500Z,21.48
2022-08-31T16:31:09.281Z,21.45
2022-08-31T16:34:02.435Z,21.36
2022-08-31T16:36:34.753Z,21.25
2022-08-31T16:39:12.626Z,21.24
2022-08-31T16:41:57.335Z,21.29
2022-08-31T16:47:27.142Z,21.25
2022-08-31T16:50:02.878Z,21.24
2022-08-31T16:52:37.303Z,21.27
2022-08-31T16:55:07.182Z,21.18
2022-08-31T16:57:38.154Z,21.13
2022-08-31T17:00:08.699Z,21.15
2022-08-31T17:02:49.367Z,21.06
2022-08-31T17:05:28.359Z,20.91
2022-08-31T17:08:00.773Z,21.14
2022-08-31T17:10:32.061Z,21.16
2022-08-31T17:13:08.715Z,21.01
2022-08-31T17:15:39.969Z,21.06
2022-08-31T17:18:30.364Z,20.96
2022-08-31T17:21:02.430Z,20.98
2022-08-31T17:23:38.646Z,20.77
2022-08-31T17:26:15.499Z,20.75
2022-08-31T17:29:03.447Z,20.70
2022-08-31T17:31:38.987Z,20.61
2022-08-31T17:34:10.180Z,20.54
2022-08-31T17:36:52.920Z,20.55
2022-08-31T17:39:29.826Z,20.61
2022-08-31T17:42:08.908Z,20.56
2022-08-31T17:44:52.647Z,20.54
2022-08-31T17:47:33.946Z,20.58
2022-08-31T17:50:13.100Z,20.55
2022-08-31T17:52:45.013Z,20.45
2022-08-31T17:55:22.654Z,20.40
2022-08-31T17:57:56.034Z,20.47
2022-08-31T18:00:30.717Z,20.42
2022-08-31T18:03:16.290Z,20.47
2022-08-31T18:05:53.977Z,20.16
2022-08-31T18:08:25.966Z,20.10
2022-08-31T18:10:59.943Z,20.16
2022-08-31T18:13:44.548Z,20.06
2022-08-31T18:16:22.328Z,19.93
2022-08-31T18:18:54.091Z,20.04
2022-08-31T18:21:33.346Z,20.01
2022-08-31T18:24:08.664Z,19.97
2022-08-31T18:26:47.569Z,19.91
2022-08-31T18:29:25.263Z,20.06
2022-08-31T18:31:59.434Z,19.98
2022-08-31T18:34:47.675Z,20.12
2022-08-31T18:37:24.893Z,19.94
2022-08-31T18:40:13.969Z,20.03
2022-08-31T18:43:06.606Z,19.91
2022-08-31T18:45:52.914Z,19.99
2022-08-31T18:48:53.439Z,19.57
2022-08-31T18:51:27.126Z,19.44
2022-08-31T18:54:01.852Z,19.53
2022-08-31T18:56:33.890Z,19.69
2022-08-31T18:59:18.516Z,19.68
2022-08-31T19:01:53.732Z,19.75
2022-08-31T19:04:26.685Z,19.74
2022-08-31T19:07:10.938Z,19.72
2022-08-31T19:09:47.432Z,19.53
2022-08-31T19:12:21.862Z,19.52
2022-08-31T19:14:56.449Z,19.57
2022-08-31T19:17:36.199Z,19.45
2022-08-31T19:20:11.576Z,19.57
2022-08-31T19:22:49.656Z,19.63
2022-08-31T19:25:31.665Z,19.40
2022-08-31T19:28:12.655Z,19.41
2022-08-31T19:30:49.217Z,19.43
2022-08-31T19:33:25.691Z,19.57
2022-08-31T19:36:24.419Z,19.36
2022-08-31T19:38:58.882Z,19.54
2022-08-31T19:41:49.370Z,19.42
2022-08-31T19:44:25.986Z,19.46
2022-08-31T19:47:07.637Z,19.56
2022-08-31T19:49:46.771Z,19.56
2022-08-31T19:52:20.452Z,19.47
2022-08-31T19:55:09.110Z,19.54
2022-08-31T19:57:46.161Z,19.23
2022-08-31T20:00:17.691Z,19.22
2022-08-31T20:02:55.145Z,19.12
2022-08-31T20:05:26.917Z,19.16
2022-08-31T20:08:07.023Z,19.20
2022-08-31T20:10:35.972Z,19.19
2022-08-31T20:13:12.040Z,19.18
2022-08-31T20:18:32.709Z,19.04
2022-08-31T20:21:09.226Z,18.90
2022-08-31T20:23:52.679Z,18.82
2022-08-31T20:26:46.363Z,18.77
2022-08-31T20:29:33.305Z,18.71
2022-08-31T20:32:14.767Z,18.91
2022-08-31T20:34:47.253Z,18.81
2022-08-31T20:37:31.473Z,18.79
2022-08-31T20:40:03.392Z,18.84
2022-08-31T20:42:38.180Z,18.84
2022-08-31T20:45:08.439Z,18.89
2022-08-31T20:47:56.242Z,18.74
2022-08-31T20:50:32.507Z,18.68
2022-08-31T20:53:09.388Z,18.71
2022-08-31T20:55:48.986Z,18.72
2022-08-31T20:58:22.104Z,18.80
2022-08-31T21:00:54.263Z,18.72
2022-08-31T21:03:26.504Z,18.67
2022-08-31T21:06:13.011Z,18.59
2022-08-31T21:08:43.739Z,18.49
2022-08-31T21:11:17.223Z,18.56
2022-08-31T21:13:52.974Z,18.67
2022-08-31T21:16:24.265Z,18.54
2022-08-31T21:18:56.377Z,18.73
2022-08-31T21:21:33.279Z,18.70
2022-08-31T21:24:09.763Z,18.80
2022-08-31T21:26:52.917Z,18.63
2022-08-31T21:29:24.446Z,18.42
2022-08-31T21:32:01.298Z,18.40
2022-08-31T21:34:34.023Z,18.44
2022-08-31T21:37:05.225Z,18.59
2022-08-31T21:39:36.119Z,18.47
2022-08-31T21:42:13.743Z,18.56
2022-08-31T21:44:51.065Z,18.57
2022-08-31T21:47:21.658Z,18.60
2022-08-31T21:50:00.523Z,18.57
2022-08-31T21:52:44.430Z,18.26
2022-08-31T21:55:23.526Z,18.28
2022-08-31T21:57:58.393Z,18.46
2022-08-31T22:00:30.255Z,18.30
2022-08-31T22:03:06.699Z,18.22
2022-08-31T22:05:46.213Z,18.28
2022-08-31T22:08:17.673Z,18.12
2022-08-31T22:11:02.704Z,18.24
2022-08-31T22:13:34.022Z,18.44
2022-08-31T22:16:18.805Z,18.22
2022-08-31T22:19:02.190Z,18.34
2022-08-31T22:21:40.386Z,18.32
2022-08-31T22:24:13.097Z,18.37
2022-08-31T22:27:04.058Z,18.33
2022-08-31T22:29:44.762Z,18.11
2022-08-31T22:32:25.161Z,18.29
2022-08-31T22:34:56.748Z,18.20
2022-08-31T22:37:38.237Z,18.23
2022-08-31T22:40:23.958Z,18.35
2022-08-31T22:43:05.602Z,18.18
2022-08-31T22:45:38.159Z,18.29
2022-08-31T22:48:08.648Z,18.38
2022-08-31T22:50:45.523Z,18.34
2022-08-31T22:53:16.779Z,18.29
2022-08-31T22:55:50.764Z,18.12
2022-08-31T22:58:22.543Z,18.24
2022-08-31T23:00:56.783Z,18.22
2022-08-31T23:03:36.035Z,18.14
2022-08-31T23:06:08.827Z,18.35
2022-08-31T23:08:49.133Z,18.10
2022-08-31T23:11:26.718Z,17.92
2022-08-31T23:14:09.561Z,18.14
2022-08-31T23:16:47.042Z,17.95
2022-08-31T23:19:24.043Z,18.19
2022-08-31T23:21:59.810Z,18.05
2022-08-31T23:24:42.254Z,18.10
2022-08-31T23:27:13.304Z,18.04
2022-08-31T23:29:52.730Z,18.02
2022-08-31T23:32:29.793Z,18.09
2022-08-31T23:35:03.428Z,17.70
2022-08-31T23:37:42.530Z,18.03
2022-08-31T23:40:37.337Z,17.86
2022-08-31T23:43:15.796Z,18.02
2022-08-31T23:45:50.296Z,17.92
2022-08-31T23:48:33.317Z,18.02
2022-08-31T23:51:05.517Z,17.77
2022-08-31T23:53:42.701Z,17.96
2022-08-31T23:56:22.696Z,18.08
2022-08-31T23:58:59.831Z,18.08
